Strona główna
METAR-TAF:

METAR-TAF

Lotnisko :

Santa Maria, Rio Grande do Sul, Brazylia

Szerokość geograficzna: 29-43S, Długość geograficzna: 053-42W, wysokość: 85 m

Aktualna obserwacja pogody

Raport powstał 1 godzina i 17 minut temu, godzina 09:00 UTC
Wiatr 1 kt od północny wschód
Temperatura 15°C
Wilgotność 88%
Ciśnienie 1018 hPa
Widzialność 10 km lub więcej
Brak chmur poniżej 1500 m i brak chmur cumulonimbus

METAR: SBSM 290900Z 04001KT CAVOK 15/13 Q1018

czas: 07:17 (10:17 UTC)

Prognoza

Raport powstał 7 godziny i 17 minut temu, godzina 03:00 UTC
Prognoza ważna od 29 godzina 06 UTC do 29 godzina 18 UTC
Wiatr 5 kt od wschód
Widzialność 10 km lub więcej
Brak chmur poniżej 1500 m i brak chmur cumulonimbus
Stopniowe zmiany
od 29 godzina 14 UTC do 29 godzina 16 UTC
Wiatr 5 kt od wschodnio-południowy wschód
Widzialność 10 km lub więcej
Rozproszone chmury na wysokości 3500 ft

TAF: SBSM 290300Z 2906/2918 08005KT CAVOK TN15/2908Z TX30/2917Z BECMG 2914/2916 12005KT 9999 SCT035 RMK PFD

Obserwacja i prognoza pogody dla ponad 4000 lotnisk (raport METAR i TAF).

Dostępne stacje oznaczono żółtymi i czerwonymi punktami na mapie.

Najedź kursorem aby zobaczyć nazwę stacji.

Kliknij aby zobaczyć obserwacje i prognozy pogody.

Aby zmienić mapę: kliknij na zielony przycisk z czarnym krzyżykiem, aby powiększyć; na zielony przycisk z myślnikiem, aby pomniejszyć; na zielone strzałki, aby przejść do map sąsiednich.


METAR-TAF: